createdAt,value
2018-11-29T11:13:33.796Z,0.60
2018-11-29T11:16:02.187Z,0.70
2018-11-29T11:18:30.557Z,0.80
2018-11-29T11:20:58.922Z,0.90
2018-11-29T11:23:27.261Z,0.90
2018-11-29T11:25:55.690Z,0.90
2018-11-29T11:28:24.136Z,1.00
2018-11-29T11:30:52.596Z,1.00
2018-11-29T11:33:20.898Z,1.10
2018-11-29T11:35:49.255Z,1.10
2018-11-29T11:38:17.616Z,1.10
2018-11-29T11:40:46.065Z,1.20
2018-11-29T11:43:14.405Z,1.20
2018-11-29T11:45:42.790Z,1.30
2018-11-29T11:48:11.099Z,1.30
2018-11-29T11:50:39.463Z,1.40
2018-11-29T11:53:08.738Z,1.40
2018-11-29T11:55:37.773Z,1.30
2018-11-29T11:58:07.186Z,1.30
2018-11-29T12:00:35.496Z,1.30
2018-11-29T12:03:07.485Z,1.30
2018-11-29T12:05:36.407Z,1.30
2018-11-29T12:08:04.770Z,1.30
2018-11-29T12:10:33.224Z,1.20
2018-11-29T12:13:01.569Z,1.20
2018-11-29T12:15:29.997Z,1.30
2018-11-29T12:17:58.349Z,1.30
2018-11-29T12:20:26.758Z,1.30
2018-11-29T12:22:55.077Z,1.30
2018-11-29T12:25:23.535Z,1.30
2018-11-29T12:27:52.377Z,1.40
2018-11-29T12:30:26.982Z,1.40
2018-11-29T12:32:57.709Z,1.40
2018-11-29T12:35:26.117Z,1.40
2018-11-29T12:37:54.769Z,1.50
2018-11-29T12:40:23.156Z,1.50
2018-11-29T12:42:51.549Z,1.50
2018-11-29T12:45:20.085Z,1.50
2018-11-29T12:47:48.436Z,1.50
2018-11-29T12:50:21.176Z,1.60
2018-11-29T12:52:49.561Z,1.60
2018-11-29T12:55:19.106Z,1.70
2018-11-29T12:57:47.460Z,1.70
2018-11-29T13:00:18.700Z,1.80
2018-11-29T13:03:01.929Z,1.80
2018-11-29T13:05:30.314Z,1.90
2018-11-29T13:07:58.616Z,1.90
2018-11-29T13:10:27.789Z,2.00
2018-11-29T13:12:56.221Z,1.90
2018-11-29T13:15:25.821Z,2.00
2018-11-29T13:17:54.958Z,2.00
2018-11-29T13:20:23.225Z,1.90
2018-11-29T13:22:51.582Z,1.90
2018-11-29T13:25:22.194Z,2.00
2018-11-29T13:27:50.722Z,1.90
2018-11-29T13:30:20.176Z,1.90
2018-11-29T13:32:50.209Z,1.90
2018-11-29T13:35:29.503Z,1.90
2018-11-29T13:38:01.374Z,1.80
2018-11-29T13:43:14.299Z,1.80
2018-11-29T13:45:42.588Z,1.80
2018-11-29T13:48:12.551Z,1.80
2018-11-29T13:50:41.119Z,1.70
2018-11-29T13:53:09.410Z,1.60
2018-11-29T13:55:38.453Z,1.60
2018-11-29T13:58:07.249Z,1.60
2018-11-29T14:00:35.601Z,1.60
2018-11-29T14:03:10.939Z,1.50
2018-11-29T14:05:39.423Z,1.50
2018-11-29T14:08:09.107Z,1.40
2018-11-29T14:10:38.484Z,1.30
2018-11-29T14:13:09.101Z,1.30
2018-11-29T14:15:38.255Z,1.30
2018-11-29T14:18:07.312Z,1.10
2018-11-29T14:20:35.953Z,1.00
2018-11-29T14:23:04.534Z,0.90
2018-11-29T14:25:33.010Z,0.90
2018-11-29T14:28:01.398Z,0.90
2018-11-29T14:30:30.342Z,0.80
2018-11-29T14:32:59.841Z,0.80
2018-11-29T14:35:28.254Z,0.70
2018-11-29T14:37:57.603Z,0.60
2018-11-29T14:40:27.717Z,0.50
2018-11-29T14:42:56.168Z,0.50
2018-11-29T14:45:26.050Z,0.50
2018-11-29T14:47:55.418Z,0.40
2018-11-29T14:50:29.870Z,0.40
2018-11-29T14:52:58.457Z,0.40
2018-11-29T14:55:26.829Z,0.40
2018-11-29T14:57:55.328Z,0.30
2018-11-29T15:00:23.889Z,0.20
2018-11-29T15:02:52.541Z,0.20
2018-11-29T15:05:25.081Z,0.10
2018-11-29T15:07:53.564Z,0.00
2018-11-29T15:10:21.943Z,0.00
2018-11-29T15:12:50.451Z,-0.10
2018-11-29T15:15:18.923Z,-0.10
2018-11-29T15:17:48.256Z,-0.20
2018-11-29T15:20:20.151Z,-0.20
2018-11-29T15:22:48.738Z,-0.30
2018-11-29T15:25:17.081Z,-0.30
2018-11-29T15:27:45.813Z,-0.30
2018-11-29T15:30:16.626Z,-0.30
2018-11-29T15:32:45.128Z,-0.40
2018-11-29T15:35:13.541Z,-0.40
2018-11-29T15:37:41.960Z,-0.50
2018-11-29T15:40:14.573Z,-0.50
2018-11-29T15:42:43.016Z,-0.50
2018-11-29T15:45:18.826Z,-0.50
2018-11-29T15:47:47.249Z,-0.50
2018-11-29T15:50:16.384Z,-0.50
2018-11-29T15:52:44.835Z,-0.50
2018-11-29T15:55:17.918Z,-0.50
2018-11-29T15:57:47.402Z,-0.60
2018-11-29T16:00:18.040Z,-0.50
2018-11-29T16:02:47.298Z,-0.40
2018-11-29T16:05:15.810Z,-0.30
2018-11-29T16:07:44.223Z,-0.30
2018-11-29T16:10:17.699Z,-0.40
2018-11-29T16:12:46.228Z,-0.50
2018-11-29T16:15:15.579Z,-0.50
2018-11-29T16:17:44.440Z,-0.60
2018-11-29T16:20:15.313Z,-0.60
2018-11-29T16:22:43.799Z,-0.60
2018-11-29T16:25:12.281Z,-0.70
2018-11-29T16:27:41.423Z,-0.80
2018-11-29T16:30:17.026Z,-0.80
2018-11-29T16:32:45.304Z,-0.80
2018-11-29T16:35:13.695Z,-0.90
2018-11-29T16:37:42.130Z,-0.90
2018-11-29T16:40:10.571Z,-1.00
2018-11-29T16:42:38.928Z,-1.00
2018-11-29T16:45:12.727Z,-1.00
2018-11-29T16:47:41.420Z,-1.10
2018-11-29T16:50:11.132Z,-1.10
2018-11-29T16:52:39.596Z,-1.10
2018-11-29T16:55:09.279Z,-1.20
2018-11-29T16:57:37.987Z,-1.20
2018-11-29T17:00:15.751Z,-1.20
2018-11-29T17:02:44.157Z,-1.20
2018-11-29T17:05:13.764Z,-1.20
2018-11-29T17:07:42.544Z,-1.20
2018-11-29T17:10:13.244Z,-1.30
2018-11-29T17:12:42.426Z,-1.30
2018-11-29T17:15:13.454Z,-1.30
2018-11-29T17:17:41.842Z,-1.30
2018-11-29T17:20:11.777Z,-1.30
2018-11-29T17:22:40.168Z,-1.40
2018-11-29T17:25:10.870Z,-1.40
2018-11-29T17:27:39.329Z,-1.40
2018-11-29T17:30:15.419Z,-1.50
2018-11-29T17:32:43.948Z,-1.40
2018-11-29T17:35:12.375Z,-1.40
2018-11-29T17:37:40.823Z,-1.40
2018-11-29T17:40:14.112Z,-1.40
2018-11-29T17:42:42.669Z,-1.40
2018-11-29T17:45:12.307Z,-1.40
2018-11-29T17:47:41.371Z,-1.40
2018-11-29T17:50:15.448Z,-1.40
2018-11-29T17:52:43.828Z,-1.30
2018-11-29T17:55:12.588Z,-1.40
2018-11-29T17:57:40.957Z,-1.40
2018-11-29T18:00:13.719Z,-1.30
2018-11-29T18:02:42.129Z,-1.30
2018-11-29T18:05:10.485Z,-1.30
2018-11-29T18:07:38.911Z,-1.30
2018-11-29T18:10:10.346Z,-1.30
2018-11-29T18:12:38.889Z,-1.20
2018-11-29T18:15:10.559Z,-1.30
2018-11-29T18:17:38.992Z,-1.30
2018-11-29T18:20:09.203Z,-1.30
2018-11-29T18:22:37.578Z,-1.30
2018-11-29T18:25:08.855Z,-1.30
2018-11-29T18:27:37.238Z,-1.40
2018-11-29T18:30:12.120Z,-1.40
2018-11-29T18:32:40.655Z,-1.40
2018-11-29T18:35:11.088Z,-1.40
2018-11-29T18:37:39.699Z,-1.40
2018-11-29T18:40:13.242Z,-1.40
2018-11-29T18:42:41.689Z,-1.40
2018-11-29T18:45:11.374Z,-1.40
2018-11-29T18:47:40.220Z,-1.40
2018-11-29T18:50:17.446Z,-1.40
2018-11-29T18:52:45.848Z,-1.30
2018-11-29T18:55:14.192Z,-1.40
2018-11-29T18:57:42.636Z,-1.40
2018-11-29T19:00:15.098Z,-1.30
2018-11-29T19:02:43.580Z,-1.30
2018-11-29T19:05:11.922Z,-1.30
2018-11-29T19:07:40.426Z,-1.30
2018-11-29T19:10:13.758Z,-1.30
2018-11-29T19:12:50.142Z,-1.30
2018-11-29T19:15:18.589Z,-1.30
2018-11-29T19:17:47.141Z,-1.30
2018-11-29T19:20:15.510Z,-1.20
2018-11-29T19:22:43.944Z,-1.30
2018-11-29T19:25:15.566Z,-1.30
2018-11-29T19:27:43.971Z,-1.30
2018-11-29T19:30:18.757Z,-1.30
2018-11-29T19:32:49.808Z,-1.30
2018-11-29T19:35:18.182Z,-1.30
2018-11-29T19:37:46.540Z,-1.30
2018-11-29T19:40:16.137Z,-1.30
2018-11-29T19:42:44.548Z,-1.20
2018-11-29T19:45:15.604Z,-1.20
2018-11-29T19:47:44.000Z,-1.20
2018-11-29T19:50:17.499Z,-1.30
2018-11-29T19:52:48.202Z,-1.30
2018-11-29T19:55:21.125Z,-1.30
2018-11-29T19:57:50.057Z,-1.30
2018-11-29T20:00:18.703Z,-1.30
2018-11-29T20:02:47.911Z,-1.30
2018-11-29T20:05:16.295Z,-1.30
2018-11-29T20:07:44.689Z,-1.30
2018-11-29T20:10:15.197Z,-1.30
2018-11-29T20:12:44.470Z,-1.30
2018-11-29T20:15:20.465Z,-1.30
2018-11-29T20:17:48.800Z,-1.20
2018-11-29T20:20:17.204Z,-1.20
2018-11-29T20:22:45.670Z,-1.20
2018-11-29T20:25:15.069Z,-1.10
2018-11-29T20:27:43.988Z,-1.20
2018-11-29T20:30:15.612Z,-1.20
2018-11-29T20:32:44.096Z,-1.20
2018-11-29T20:35:12.960Z,-1.20
2018-11-29T20:37:41.551Z,-1.20
2018-11-29T20:40:13.422Z,-1.20
2018-11-29T20:42:41.983Z,-1.20
2018-11-29T20:45:12.283Z,-1.20
2018-11-29T20:47:40.661Z,-1.30
2018-11-29T20:50:14.751Z,-1.30
2018-11-29T20:52:39.617Z,-1.30
2018-11-29T20:55:12.605Z,-1.30
2018-11-29T20:57:40.952Z,-1.30
2018-11-29T21:00:13.805Z,-1.20
2018-11-29T21:02:42.386Z,-1.30
2018-11-29T21:05:14.320Z,-1.20
2018-11-29T21:07:44.107Z,-1.20
2018-11-29T21:10:15.967Z,-1.10
2018-11-29T21:12:44.423Z,-1.10
2018-11-29T21:15:12.851Z,-1.00
2018-11-29T21:17:41.305Z,-1.00
2018-11-29T21:20:11.958Z,-1.00
2018-11-29T21:22:40.553Z,-1.00
2018-11-29T21:25:13.199Z,-1.10
2018-11-29T21:27:41.626Z,-1.10
2018-11-29T21:30:12.350Z,-1.20
2018-11-29T21:32:40.837Z,-1.20
2018-11-29T21:35:10.345Z,-1.20
2018-11-29T21:37:38.932Z,-1.30
2018-11-29T21:40:13.067Z,-1.40
2018-11-29T21:42:41.435Z,-1.40
2018-11-29T21:45:10.044Z,-1.40
2018-11-29T21:47:38.460Z,-1.40
2018-11-29T21:50:08.232Z,-1.50
2018-11-29T21:52:36.631Z,-1.40
2018-11-29T21:55:05.834Z,-1.50
2018-11-29T21:57:34.221Z,-1.50
2018-11-29T22:00:02.690Z,-1.50
2018-11-29T22:02:31.106Z,-1.50
2018-11-29T22:04:59.470Z,-1.50
2018-11-29T22:07:27.797Z,-1.60
2018-11-29T22:09:56.186Z,-1.60
2018-11-29T22:12:24.573Z,-1.60
2018-11-29T22:14:52.955Z,-1.50
2018-11-29T22:17:24.734Z,-1.50
2018-11-29T22:19:53.112Z,-1.50
2018-11-29T22:22:21.477Z,-1.60
2018-11-29T22:24:49.875Z,-1.60
2018-11-29T22:27:18.269Z,-1.60
2018-11-29T22:29:46.598Z,-1.60
2018-11-29T22:32:14.955Z,-1.50
2018-11-29T22:34:43.342Z,-1.50
2018-11-29T22:37:11.825Z,-1.50
2018-11-29T22:39:40.510Z,-1.50
2018-11-29T22:42:08.901Z,-1.60
2018-11-29T22:44:37.250Z,-1.60
2018-11-29T22:47:06.331Z,-1.60
2018-11-29T22:49:34.655Z,-1.60
2018-11-29T22:52:02.948Z,-1.60
2018-11-29T22:54:31.396Z,-1.70
2018-11-29T22:56:59.754Z,-1.70
2018-11-29T22:59:28.092Z,-1.70
2018-11-29T23:01:56.446Z,-1.60
2018-11-29T23:04:24.847Z,-1.60
2018-11-29T23:06:53.192Z,-1.50
2018-11-29T23:09:21.903Z,-1.50
2018-11-29T23:11:49.846Z,-1.40
2018-11-29T23:14:18.510Z,-1.40
2018-11-29T23:16:47.109Z,-1.40
2018-11-29T23:19:15.581Z,-1.50
2018-11-29T23:21:43.864Z,-1.50
2018-11-29T23:24:12.501Z,-1.50
2018-11-29T23:26:40.887Z,-1.50
2018-11-29T23:29:09.220Z,-1.50
2018-11-29T23:31:38.061Z,-1.50
2018-11-29T23:34:06.832Z,-1.50
2018-11-29T23:36:35.227Z,-1.60
2018-11-29T23:39:03.766Z,-1.50
2018-11-29T23:41:32.117Z,-1.60
2018-11-29T23:44:00.384Z,-1.70
2018-11-29T23:46:29.036Z,-1.70
2018-11-29T23:48:57.473Z,-1.80
2018-11-29T23:51:25.792Z,-1.80
2018-11-29T23:54:57.014Z,-1.80
2018-11-29T23:57:25.722Z,-1.80
2018-11-29T23:59:54.029Z,-1.90
